Latest Weather Observations for Redcliffe

IDQ60801

Issued at 11:52 pm EST Monday 19 November 2018 (issued every 10 minutes, with the page automatically refreshed every 10 minutes)

About weather observations | Map of weather stations | Latest weather observations for QLD | Other Formats
Station Details ID: 040958 Name: REDCLIFFE Lat: -27.22 Lon: 153.09 Height: 12.6 m
Data from the previous 72 hours. | See also: Recent months at Redcliffe
Date/Time
EST
Temp
°C
App
Temp
°C
Dew
Point
°C
Rel
Hum
%
Delta-T
°C
Wind Press
QNH
hPa
Press
MSL
hPa
Rain since
9am
mm
Dir  Spd
km/h
Gust
km/h
Spd
kts
Gust
kts
19/11:30pm 22.2 19.8 12.5 54 5.5 E 17 22 9 12 1017.8 1017.7 0.0
19/11:00pm 22.2 19.8 12.5 54 5.5 ESE 17 20 9 11 1018.0 1017.9 0.0
19/10:30pm 22.3 20.0 11.7 51 5.9 ESE 15 20 8 11 1018.3 1018.2 0.0
19/10:00pm 22.3 19.2 11.7 51 5.9 ESE 19 26 10 14 1018.3 1018.2 0.0
19/09:30pm 22.4 19.1 11.5 50 6.1 ESE 20 28 11 15 1018.5 1018.4 0.0
19/09:00pm 22.3 19.0 11.7 51 5.9 ESE 20 26 11 14 1018.4 1018.3 0.0
19/08:30pm 22.0 18.4 11.7 52 5.8 ESE 22 26 12 14 1018.3 1018.2 0.0
19/08:00pm 22.2 18.6 11.9 52 5.8 ESE 22 28 12 15 1018.1 1018.0 0.0
19/07:30pm 22.3 18.5 12.3 53 5.7 ESE 24 30 13 16 1017.9 1017.8 0.0
19/07:00pm 22.3 18.1 12.5 53 5.6 ESE 26 32 14 17 1017.7 1017.6 0.0
19/06:30pm 22.5 18.0 12.7 54 5.6 ESE 28 35 15 19 1017.5 1017.4 0.0
19/06:00pm 22.6 18.2 12.8 54 5.6 ESE 28 33 15 18 1017.2 1017.1 0.0
19/05:30pm 22.7 18.4 13.2 55 5.5 ESE 28 32 15 17 1017.0 1016.9 0.0
19/05:00pm 23.0 19.1 13.2 54 5.6 ESE 26 32 14 17 1016.6 1016.5 0.0
19/04:30pm 23.9 19.7 12.5 49 6.5 ESE 26 33 14 18 1016.4 1016.3 0.0
19/04:00pm 24.0 19.6 11.7 46 6.9 ESE 26 32 14 17 1016.4 1016.3 0.0
19/03:30pm 24.6 20.3 12.2 46 7.1 ESE 26 32 14 17 1016.6 1016.5 0.0
19/03:00pm 24.7 20.6 12.6 47 7.0 ESE 26 32 14 17 1016.5 1016.4 0.0
19/02:30pm 24.7 20.6 11.6 44 7.4 ESE 24 30 13 16 1016.8 1016.7 0.0
19/02:00pm 24.7 20.7 10.6 41 7.8 ESE 22 28 12 15 1017.1 1017.0 0.0
19/01:30pm 24.3 19.6 10.6 42 7.6 ESE 26 33 14 18 1017.4 1017.3 0.0
19/01:00pm 24.7 19.9 10.2 40 8.0 SE 26 32 14 17 1017.7 1017.6 0.0
19/12:30pm 25.1 20.0 12.0 44 7.5 SE 30 35 16 19 1017.9 1017.8 0.0
19/12:00pm 25.3 20.5 12.9 46 7.2 SE 30 35 16 19 1018.3 1018.2 0.0
19/11:30am 25.0 20.3 13.2 48 6.9 SSE 30 37 16 20 1018.7 1018.6 0.0
19/11:00am 24.4 18.9 12.0 46 7.0 SSE 32 37 17 20 1018.8 1018.7 0.0
19/10:30am 24.2 19.6 12.2 47 6.8 SSE 28 33 15 18 1019.2 1019.1 0.0
19/10:00am 24.6 22.0 13.8 51 6.3 SSE 20 26 11 14 1019.8 1019.7 0.0
19/09:30am 24.2 21.1 13.4 51 6.3 SSE 22 30 12 16 1019.9 1019.8 0.0
19/09:00am 24.5 21.0 13.4 50 6.5 S 24 28 13 15 1019.8 1019.7 0.2
19/08:30am 23.8 19.4 12.8 50 6.3 SSE 28 33 15 18 1019.9 1019.8 0.2
19/08:00am 23.3 21.4 12.9 52 6.0 SSE 15 19 8 10 1019.8 1019.7 0.2
19/07:30am 23.2 20.8 13.7 55 5.5 S 19 26 10 14 1019.8 1019.7 0.2
19/07:00am 22.3 19.8 13.4 57 5.1 S 19 24 10 13 1019.8 1019.7 0.2
19/06:30am 21.7 19.2 14.1 62 4.4 S 20 24 11 13 1019.5 1019.4 0.2
19/06:00am 20.8 17.9 14.0 65 3.9 S 22 28 12 15 1019.1 1019.0 0.2
19/05:30am 20.1 17.0 14.5 70 3.3 S 24 30 13 16 1018.9 1018.8 0.2
19/05:00am 19.8 17.3 14.2 70 3.2 S 20 26 11 14 1018.8 1018.7 0.2
19/04:30am 20.4 17.0 13.8 66 3.8 S 24 32 13 17 1018.4 1018.3 0.2
19/04:00am 21.5 16.2 12.6 57 5.0 SE 32 37 17 20 1018.0 1017.9 0.2
19/03:30am 21.6 17.1 12.7 57 5.1 SE 28 32 15 17 1017.9 1017.8 0.2
19/03:00am 21.5 16.5 12.1 55 5.3 SE 30 35 16 19 1017.9 1017.8 0.2
19/02:30am 21.6 16.3 11.3 52 5.7 SE 30 33 16 18 1017.9 1017.8 0.2
19/02:00am 21.8 16.5 12.4 55 5.3 SE 32 39 17 21 1017.8 1017.7 0.2
19/01:30am 21.8 16.4 12.9 57 5.1 SE 33 43 18 23 1018.0 1017.9 0.2
19/01:00am 21.6 17.9 13.8 61 4.5 ESE 26 35 14 19 1018.7 1018.6 0.2
19/12:30am 21.9 16.9 14.0 61 4.6 ESE 33 39 18 21 1018.7 1018.6 0.2
19/12:00am 22.1 17.2 12.6 55 5.4 SE 30 35 16 19 1019.4 1019.3 0.2
 
Date/Time
EST
Temp
°C
App
Temp
°C
Dew
Point
°C
Rel
Hum
%
Delta-T
°C
Wind Press
QNH
hPa
Press
MSL
hPa
Rain since
9am
mm
Dir  Spd
km/h
Gust
km/h
Spd
kts
Gust
kts
18/11:30pm 22.2 17.0 12.7 55 5.4 SE 32 37 17 20 1019.6 1019.5 0.2
18/11:00pm 22.0 16.3 13.1 57 5.1 ESE 35 46 19 25 1019.7 1019.6 0.2
18/10:30pm 22.3 15.8 12.8 55 5.4 ESE 39 48 21 26 1019.6 1019.5 0.2
18/10:00pm 22.4 15.4 12.6 54 5.6 SE 41 48 22 26 1019.5 1019.4 0.2
18/09:30pm 21.8 15.7 14.2 62 4.4 SE 39 50 21 27 1019.2 1019.1 0.2
18/09:00pm 22.1 17.5 14.7 63 4.4 SE 32 43 17 23 1019.3 1019.2 0.2
18/08:30pm 21.4 14.6 15.9 71 3.3 SE 46 54 25 29 1019.1 1019.0 0.2
18/08:00pm 22.8 18.2 14.6 60 4.8 SE 32 39 17 21 1018.8 1018.7 0.2
18/07:30pm 22.7 17.8 14.3 59 4.9 SE 33 39 18 21 1018.7 1018.6 0.2
18/07:00pm 22.2 17.7 15.5 66 4.0 SE 33 39 18 21 1018.2 1018.1 0.2
18/06:30pm 23.1 18.0 14.9 60 4.9 SE 35 44 19 24 1017.9 1017.8 0.0
18/06:00pm 23.1 18.3 14.7 59 5.0 SE 33 41 18 22 1017.8 1017.7 0.0
18/05:30pm 23.1 17.8 14.1 57 5.3 ESE 35 41 19 22 1017.3 1017.2 0.0
18/05:00pm 23.5 18.3 14.5 57 5.3 SE 35 41 19 22 1017.1 1017.0 0.0
18/04:30pm 23.8 18.5 14.2 55 5.7 ESE 35 41 19 22 1016.9 1016.8 0.0
18/04:00pm 23.8 19.0 14.5 56 5.5 ESE 33 43 18 23 1017.1 1017.0 0.0
18/03:30pm 24.7 20.1 15.1 55 5.8 ESE 33 37 18 20 1017.3 1017.2 0.0
18/03:00pm 24.1 19.5 14.5 55 5.7 ESE 32 39 17 21 1017.4 1017.3 0.0
18/02:30pm 24.5 19.6 14.3 53 6.0 SE 33 39 18 21 1017.4 1017.3 0.0
18/02:00pm 24.4 19.6 14.5 54 5.9 SE 33 39 18 21 1017.5 1017.4 0.0
18/01:30pm 25.3 20.4 15.3 54 6.0 SE 35 39 19 21 1017.8 1017.7 0.0
18/01:00pm 24.6 19.7 15.2 55 5.6 SE 35 41 19 22 1017.9 1017.8 0.0
18/12:30pm 25.3 20.0 15.3 54 6.0 SE 37 43 20 23 1018.2 1018.1 0.0
18/12:00pm 24.2 19.1 14.9 56 5.5 SE 35 41 19 22 1018.4 1018.3 0.0
18/11:30am 24.3 19.2 15.8 59 5.2 SE 37 48 20 26 1018.3 1018.2 0.0
18/11:00am 23.7 20.1 17.2 67 4.0 ESE 32 39 17 21 1018.5 1018.4 0.0
18/10:30am 24.6 21.2 18.1 67 4.1 SE 33 41 18 22 1018.5 1018.4 0.0
18/10:00am 23.3 19.4 16.4 65 4.2 SE 32 39 17 21 1018.7 1018.6 0.0
18/09:30am 22.6 18.5 17.3 72 3.3 SE 35 43 19 23 1019.0 1018.9 0.0
18/09:00am 23.5 20.2 17.9 71 3.5 S 32 37 17 20 1018.6 1018.5 2.8
18/08:30am 22.9 17.4 16.7 68 3.8 SSE 41 48 22 26 1018.4 1018.3 2.8
18/08:00am 23.4 19.2 17.2 68 3.8 SSE 35 41 19 22 1018.0 1017.9 2.8
18/07:30am 21.8 16.6 17.4 76 2.7 SSE 41 50 22 27 1017.9 1017.8 2.8
18/07:00am 21.9 17.8 17.3 75 2.8 S 35 41 19 22 1017.7 1017.6 2.8
18/06:30am 20.8 17.0 16.8 78 2.4 S 32 39 17 21 1017.3 1017.2 2.8
18/06:00am 20.6 17.7 17.0 80 2.2 S 28 33 15 18 1016.9 1016.8 2.8
18/05:30am 19.4 16.9 17.0 86 1.5 S 26 33 14 18 1016.8 1016.7 2.8
18/05:00am 18.7 17.3 16.5 87 1.3 S 19 28 10 15 1016.4 1016.3 2.8
18/04:30am 18.8 17.2 16.4 86 1.4 S 20 28 11 15 1016.0 1015.9 2.8
18/04:00am 19.3 16.3 16.9 86 1.5 S 28 33 15 18 1015.6 1015.5 2.8
18/03:30am 19.2 18.3 16.8 86 1.4 SSW 17 24 9 13 1015.5 1015.4 2.8
18/03:00am 19.6 18.9 17.4 87 1.3 SSW 17 26 9 14 1015.6 1015.5 2.8
18/02:30am 19.4 19.3 17.0 86 1.5 SSW 13 19 7 10 1015.4 1015.3 2.8
18/02:00am 20.0 19.0 17.6 86 1.5 SSW 19 28 10 15 1015.9 1015.8 2.8
18/01:30am 19.9 18.9 17.9 88 1.2 SSW 20 32 11 17 1015.7 1015.6 2.8
18/01:00am 19.7 18.9 17.1 85 1.6 SSW 17 24 9 13 1015.5 1015.4 2.8
18/12:30am 19.9 20.9 17.7 87 1.4 S 9 15 5 8 1015.7 1015.6 2.8
18/12:00am 20.1 21.4 17.5 85 1.6 ESE 7 11 4 6 1016.0 1015.9 2.8
 
Date/Time
EST
Temp
°C
App
Temp
°C
Dew
Point
°C
Rel
Hum
%
Delta-T
°C
Wind Press
QNH
hPa
Press
MSL
hPa
Rain since
9am
mm
Dir  Spd
km/h
Gust
km/h
Spd
kts
Gust
kts
17/11:30pm 20.5 20.5 17.3 82 2.0 ESE 13 15 7 8 1016.3 1016.2 2.8
17/11:00pm 21.2 21.0 17.6 80 2.2 E 15 19 8 10 1016.3 1016.2 2.8
17/10:30pm 21.2 19.6 17.4 79 2.3 E 22 30 12 16 1016.5 1016.4 2.8
17/10:00pm 20.9 17.5 17.7 82 2.0 E 32 37 17 20 1016.7 1016.6 2.8
17/09:30pm 20.8 16.7 17.4 81 2.1 E 35 41 19 22 1016.6 1016.5 2.8
17/09:00pm 21.4 16.9 18.2 82 2.0 ESE 39 50 21 27 1016.4 1016.3 2.8
17/08:50pm 21.2 16.3 18.2 83 1.9 ESE 41 50 22 27 1016.2 1016.1 2.8
17/08:30pm 21.2 17.9 18.4 84 1.7 SE 33 37 18 20 1016.1 1016.0 2.8
17/08:00pm 21.3 21.2 18.7 85 1.6 S 17 30 9 16 1016.1 1016.0 2.8
17/07:30pm 22.0 22.5 20.1 89 1.2 S 17 26 9 14 1015.4 1015.3 2.8
17/07:27pm 22.0 23.3 20.1 89 1.2 SSW 13 26 7 14 1015.1 1015.0 2.8
17/07:00pm 21.8 21.4 19.4 86 1.5 NNW 20 30 11 16 1013.1 1013.0 2.8
17/06:39pm 22.0 20.6 19.7 87 1.5 N 26 39 14 21 1012.7 1012.6 2.8
17/06:30pm 22.1 23.0 20.0 88 1.3 NW 15 20 8 11 1013.7 1013.6 2.6
17/06:00pm 22.8 23.2 19.0 79 2.4 N 15 26 8 14 1013.5 1013.4 0.8
17/05:30pm 23.7 23.4 19.2 76 2.9 N 19 39 10 21 1013.3 1013.2 0.0
17/05:26pm 23.7 22.1 19.2 76 2.9 N 26 52 14 28 1012.8 1012.7 0.0
17/05:18pm 23.9 17.9 19.6 77 2.8 NNE 50 69 27 37 1011.1 1011.0 0.0
17/05:00pm 23.5 17.3 19.0 76 2.9 NNE 50 59 27 32 1010.0 1009.9 0.0
17/04:56pm 23.7 17.8 19.0 75 3.0 NNE 48 59 26 32 1009.9 1009.8 0.0
17/04:46pm 24.5 21.7 18.2 68 4.0 NNE 30 43 16 23 1011.9 1011.8 0.0
17/04:30pm 24.6 24.2 18.1 67 4.1 NE 17 24 9 13 1013.0 1012.9 0.0
17/04:00pm 24.5 21.0 17.5 65 4.4 NE 32 35 17 19 1012.3 1012.2 0.0
17/03:30pm 24.8 21.7 17.5 64 4.6 NE 30 33 16 18 1011.7 1011.6 0.0
17/03:00pm 25.7 22.4 17.1 59 5.4 NE 30 33 16 18 1011.8 1011.7 0.0
17/02:30pm 27.4 24.5 17.0 53 6.5 NE 28 32 15 17 1012.3 1012.2 0.0
17/02:00pm 26.9 24.9 17.4 56 6.0 NE 24 28 13 15 1013.2 1013.1 0.0
17/01:30pm 26.2 23.7 17.0 57 5.7 NE 26 30 14 16 1013.5 1013.4 0.0
17/01:00pm 26.4 23.9 17.2 57 5.7 NE 26 30 14 16 1013.7 1013.6 0.0
17/12:30pm 26.4 23.3 17.5 58 5.6 NE 30 33 16 18 1014.0 1013.9 0.0
17/12:00pm 26.4 23.9 16.1 53 6.3 NE 24 30 13 16 1014.4 1014.3 0.0
17/11:30am 27.1 25.3 17.0 54 6.3 NE 22 28 12 15 1015.0 1014.9 0.0
17/11:00am 26.4 25.4 16.6 55 6.1 ENE 17 19 9 10 1015.4 1015.3 0.0
17/10:30am 26.8 26.1 17.3 56 5.9 ENE 17 19 9 10 1015.6 1015.5 0.0
17/10:00am 26.6 25.9 15.3 50 6.8 ENE 13 15 7 8 1016.0 1015.9 0.0
17/09:30am 26.5 26.9 16.4 53 6.2 ENE 9 11 5 6 1016.2 1016.1 0.0
17/09:00am 25.8 25.7 16.1 55 5.9 ENE 11 13 6 7 1016.3 1016.2 0.0
17/08:30am 25.3 24.9 16.2 57 5.6 NNE 13 17 7 9 1016.2 1016.1 0.0
17/08:00am 25.3 25.4 17.5 62 4.9 NNE 13 17 7 9 1016.2 1016.1 0.0
17/07:30am 25.3 25.7 18.2 64 4.5 NNE 13 17 7 9 1016.2 1016.1 0.0
17/07:00am 24.5 25.2 17.0 63 4.6 NNE 9 13 5 7 1016.2 1016.1 0.0
17/06:30am 23.6 24.6 16.9 66 4.1 WNW 7 7 4 4 1015.8 1015.7 0.0
17/06:00am 22.5 23.3 17.4 73 3.1 W 9 11 5 6 1015.5 1015.4 0.0
17/05:30am 21.4 22.2 17.2 77 2.6 W 9 11 5 6 1015.2 1015.1 0.0
17/05:00am 21.2 21.8 16.8 76 2.7 NW 9 11 5 6 1014.9 1014.8 0.0
17/04:30am 22.1 21.9 16.8 72 3.2 NE 13 17 7 9 1014.4 1014.3 0.0
17/04:00am 22.5 22.4 17.0 71 3.4 NNE 13 15 7 8 1014.3 1014.2 0.0
17/03:30am 22.6 22.5 16.9 70 3.5 NE 13 15 7 8 1014.2 1014.1 0.0
17/03:00am 22.7 22.4 16.5 68 3.8 NE 13 15 7 8 1014.3 1014.2 0.0
17/02:30am 22.7 22.3 16.3 67 3.9 ENE 13 15 7 8 1014.4 1014.3 0.0
17/02:00am 22.7 22.5 15.8 65 4.2 E 11 15 6 8 1014.8 1014.7 0.0
17/01:30am 23.2 22.8 16.3 65 4.2 ENE 13 15 7 8 1014.9 1014.8 0.0
17/01:00am 23.4 23.5 16.4 64 4.3 ENE 11 13 6 7 1015.2 1015.1 0.0
17/12:30am 23.5 23.1 16.3 64 4.4 NE 13 17 7 9 1015.5 1015.4 0.0
17/12:00am 23.4 23.2 16.7 66 4.1 ENE 13 17 7 9 1015.8 1015.7 0.0

Other Formats:

Comma delimited format used in spreadsheet applications
http://www.bom.gov.au/fwo/IDQ60801/IDQ60801.95591.axf

JavaScript Object Notation format (JSON) in row-major order
http://www.bom.gov.au/fwo/IDQ60801/IDQ60801.95591.json